createdAt,value
2022-10-13T00:00:49.877Z,101828.97
2022-10-13T00:03:53.033Z,101824.34
2022-10-13T00:06:55.821Z,101826.25
2022-10-13T00:09:58.592Z,101827.50
2022-10-13T00:13:02.753Z,101825.81
2022-10-13T00:16:05.914Z,101824.38
2022-10-13T00:19:12.885Z,101816.19
2022-10-13T00:22:17.757Z,101810.31
2022-10-13T00:25:20.616Z,101814.25
2022-10-13T00:28:25.089Z,101810.91
2022-10-13T00:31:30.180Z,101813.00
2022-10-13T00:34:32.856Z,101816.16
2022-10-13T00:37:35.473Z,101815.31
2022-10-13T00:40:45.351Z,101807.75
2022-10-13T00:43:53.713Z,101808.63
2022-10-13T00:46:56.258Z,101810.06
2022-10-13T00:49:59.318Z,101806.09
2022-10-13T00:53:02.937Z,101799.38
2022-10-13T00:56:09.000Z,101805.88
2022-10-13T00:59:22.555Z,101801.47
2022-10-13T01:02:28.868Z,101793.25
2022-10-13T01:05:32.152Z,101809.44
2022-10-13T01:08:35.609Z,101805.84
2022-10-13T01:11:55.808Z,101803.78
2022-10-13T01:15:09.358Z,101801.25
2022-10-13T01:18:22.361Z,101799.16
2022-10-13T01:21:34.395Z,101801.25
2022-10-13T01:24:50.838Z,101794.31
2022-10-13T01:28:13.953Z,101793.66
2022-10-13T01:31:26.934Z,101787.38
2022-10-13T01:34:37.089Z,101789.47
2022-10-13T01:37:48.165Z,101780.25
2022-10-13T01:41:01.550Z,101779.81
2022-10-13T01:44:12.841Z,101773.53
2022-10-13T01:47:19.852Z,101768.91
2022-10-13T01:50:24.089Z,101768.72
2022-10-13T01:53:28.473Z,101767.03
2022-10-13T01:56:31.055Z,101769.50
2022-10-13T01:59:38.587Z,101755.47
2022-10-13T02:02:48.757Z,101763.84
2022-10-13T02:06:00.508Z,101757.56
2022-10-13T02:09:10.852Z,101750.22
2022-10-13T02:12:20.660Z,101742.03
2022-10-13T02:15:28.674Z,101749.78
2022-10-13T02:18:35.521Z,101742.44
2022-10-13T02:21:38.864Z,101741.81
2022-10-13T02:24:41.833Z,101738.88
2022-10-13T02:27:44.584Z,101729.66
2022-10-13T02:30:48.302Z,101723.78
2022-10-13T02:33:52.197Z,101727.34
2022-10-13T02:36:54.768Z,101723.16
2022-10-13T02:39:57.321Z,101718.34
2022-10-13T02:43:00.115Z,101715.81
2022-10-13T02:46:02.784Z,101716.88
2022-10-13T02:49:06.664Z,101705.31
2022-10-13T02:52:09.362Z,101705.34
2022-10-13T02:55:11.948Z,101703.47
2022-10-13T02:58:14.668Z,101701.34
2022-10-13T03:01:17.446Z,101698.19
2022-10-13T03:04:21.509Z,101707.63
2022-10-13T03:07:24.133Z,101701.78
2022-10-13T03:10:27.146Z,101697.16
2022-10-13T03:13:29.774Z,101699.25
2022-10-13T03:16:32.350Z,101699.03
2022-10-13T03:19:36.415Z,101698.59
2022-10-13T03:22:38.983Z,101703.47
2022-10-13T03:25:41.545Z,101695.06
2022-10-13T03:28:44.389Z,101701.13
2022-10-13T03:31:47.010Z,101697.78
2022-10-13T03:34:51.459Z,101693.56
2022-10-13T03:37:55.150Z,101691.47
2022-10-13T03:40:57.836Z,101682.44
2022-10-13T03:44:00.416Z,101692.09
2022-10-13T03:47:02.994Z,101678.63
2022-10-13T03:50:08.227Z,101678.47
2022-10-13T03:53:11.469Z,101675.28
2022-10-13T03:56:17.492Z,101679.25
2022-10-13T03:59:20.070Z,101669.59
2022-10-13T04:02:22.871Z,101679.44
2022-10-13T04:05:26.947Z,101675.22
2022-10-13T04:08:29.614Z,101670.59
2022-10-13T04:11:32.185Z,101674.59
2022-10-13T04:14:35.137Z,101671.63
2022-10-13T04:17:37.849Z,101674.34
2022-10-13T04:20:41.777Z,101672.25
2022-10-13T04:23:44.500Z,101671.00
2022-10-13T04:26:47.370Z,101669.94
2022-10-13T04:29:50.059Z,101661.53
2022-10-13T04:32:52.725Z,101664.03
2022-10-13T04:35:56.797Z,101661.31
2022-10-13T04:38:59.477Z,101663.84
2022-10-13T04:42:02.184Z,101664.03
2022-10-13T04:45:05.173Z,101657.28
2022-10-13T04:48:07.807Z,101647.00
2022-10-13T04:51:14.165Z,101644.03
2022-10-13T04:54:16.751Z,101656.25
2022-10-13T04:57:19.336Z,101649.06
2022-10-13T05:00:22.157Z,101654.75
2022-10-13T05:03:25.989Z,101656.22
2022-10-13T05:06:32.055Z,101639.59
2022-10-13T05:09:34.635Z,101648.84
2022-10-13T05:12:37.801Z,101648.00
2022-10-13T05:15:40.466Z,101641.31
2022-10-13T05:18:43.724Z,101646.78
2022-10-13T05:21:47.616Z,101646.97
2022-10-13T05:24:50.280Z,101630.78
2022-10-13T05:27:52.996Z,101633.53
2022-10-13T05:30:55.572Z,101629.72
2022-10-13T05:33:58.735Z,101629.31
2022-10-13T05:37:02.953Z,101627.19
2022-10-13T05:40:07.226Z,101639.13
2022-10-13T05:43:09.820Z,101630.28
2022-10-13T05:46:12.526Z,101637.59
2022-10-13T05:49:15.166Z,101621.44
2022-10-13T05:52:20.845Z,101628.56
2022-10-13T05:55:23.885Z,101627.50
2022-10-13T05:58:26.562Z,101620.75
2022-10-13T06:01:32.753Z,101629.81
2022-10-13T06:04:39.471Z,101628.13
2022-10-13T06:07:44.759Z,101624.16
2022-10-13T06:10:47.453Z,101625.63
2022-10-13T06:13:50.029Z,101632.16
2022-10-13T06:16:52.788Z,101635.72
2022-10-13T06:19:55.345Z,101628.97
2022-10-13T06:22:59.301Z,101624.09
2022-10-13T06:26:01.931Z,101632.09
2022-10-13T06:29:05.009Z,101622.00
2022-10-13T06:32:07.775Z,101636.53
2022-10-13T06:35:10.921Z,101625.97
2022-10-13T06:38:15.091Z,101624.25
2022-10-13T06:41:17.794Z,101624.84
2022-10-13T06:44:20.569Z,101620.41
2022-10-13T06:47:23.172Z,101624.56
2022-10-13T06:50:26.210Z,101622.13
2022-10-13T06:53:30.289Z,101618.78
2022-10-13T06:56:33.014Z,101621.72
2022-10-13T06:59:35.845Z,101620.19
2022-10-13T07:02:38.557Z,101628.34
2022-10-13T07:05:41.104Z,101612.25
2022-10-13T07:08:45.414Z,101615.97
2022-10-13T07:11:49.461Z,101609.44
2022-10-13T07:14:52.175Z,101607.16
2022-10-13T07:17:55.524Z,101604.59
2022-10-13T07:20:58.859Z,101603.03
2022-10-13T07:24:04.417Z,101607.81
2022-10-13T07:27:08.032Z,101601.03
2022-10-13T07:30:11.689Z,101599.31
2022-10-13T07:33:14.422Z,101601.13
2022-10-13T07:36:17.122Z,101593.59
2022-10-13T07:39:21.196Z,101598.13
2022-10-13T07:42:23.764Z,101593.47
2022-10-13T07:45:26.863Z,101592.41
2022-10-13T07:48:29.744Z,101593.59
2022-10-13T07:51:32.278Z,101597.88
2022-10-13T07:54:36.222Z,101599.63
2022-10-13T07:57:38.870Z,101602.88
2022-10-13T08:00:41.646Z,101596.00
2022-10-13T08:03:48.954Z,101602.59
2022-10-13T08:06:53.104Z,101594.41
2022-10-13T08:09:57.152Z,101591.19
2022-10-13T08:12:59.712Z,101582.59
2022-10-13T08:16:03.227Z,101582.38
2022-10-13T08:19:07.050Z,101587.50
2022-10-13T08:22:10.415Z,101567.22
2022-10-13T08:25:14.826Z,101568.69
2022-10-13T08:28:19.966Z,101568.06
2022-10-13T08:31:22.875Z,101565.31
2022-10-13T08:34:26.646Z,101570.81
2022-10-13T08:37:29.312Z,101572.94
2022-10-13T08:40:33.286Z,101571.44
2022-10-13T08:43:41.773Z,101567.66
2022-10-13T08:47:05.113Z,101565.53
2022-10-13T08:50:14.453Z,101564.59
2022-10-13T08:53:24.280Z,101559.00
2022-10-13T08:56:31.701Z,101551.72
2022-10-13T08:59:34.304Z,101552.53
2022-10-13T09:02:39.137Z,101551.56
2022-10-13T09:05:48.014Z,101548.81
2022-10-13T09:08:54.343Z,101541.81
2022-10-13T09:12:00.239Z,101533.44
2022-10-13T09:15:05.326Z,101539.97
2022-10-13T09:18:13.632Z,101547.16
2022-10-13T09:21:20.477Z,101546.16
2022-10-13T09:24:24.811Z,101546.25
2022-10-13T09:27:28.820Z,101538.88
2022-10-13T09:30:35.591Z,101540.72
2022-10-13T09:33:38.522Z,101542.78
2022-10-13T09:36:55.602Z,101554.25
2022-10-13T09:40:03.221Z,101548.16
2022-10-13T09:43:21.848Z,101550.53
2022-10-13T09:46:27.276Z,101550.38
2022-10-13T09:49:35.725Z,101557.44
2022-10-13T09:52:38.380Z,101552.25
2022-10-13T09:55:41.058Z,101551.47
2022-10-13T09:58:49.678Z,101556.06
2022-10-13T10:01:54.199Z,101558.19
2022-10-13T10:05:01.258Z,101551.16
2022-10-13T10:08:12.412Z,101551.19
2022-10-13T10:11:18.892Z,101546.22
2022-10-13T10:14:27.280Z,101536.72
2022-10-13T10:17:36.130Z,101537.03
2022-10-13T10:20:47.741Z,101533.72
2022-10-13T10:23:54.282Z,101532.97
2022-10-13T10:27:00.713Z,101530.78
2022-10-13T10:30:07.096Z,101519.00
2022-10-13T10:33:14.311Z,101525.66
2022-10-13T10:36:22.842Z,101515.41
2022-10-13T10:39:37.628Z,101512.59
2022-10-13T10:42:53.940Z,101512.56
2022-10-13T10:46:00.900Z,101511.75
2022-10-13T10:49:12.014Z,101500.72
2022-10-13T10:52:24.494Z,101500.19
2022-10-13T10:55:33.868Z,101503.22
2022-10-13T10:58:44.668Z,101488.00
2022-10-13T11:01:57.403Z,101479.44
2022-10-13T11:05:05.311Z,101476.97
2022-10-13T11:08:27.949Z,101471.84
2022-10-13T11:11:37.746Z,101472.69
2022-10-13T11:14:40.693Z,101472.56
2022-10-13T11:17:44.777Z,101484.28
2022-10-13T11:20:59.072Z,101482.38
2022-10-13T11:24:02.308Z,101472.47
2022-10-13T11:27:20.427Z,101465.84
2022-10-13T11:30:50.424Z,101465.56
2022-10-13T11:34:00.147Z,101459.50
2022-10-13T11:37:03.613Z,101444.44
2022-10-13T11:40:21.213Z,101442.31
2022-10-13T11:43:43.381Z,101436.22
2022-10-13T11:47:01.209Z,101429.47
2022-10-13T11:50:15.705Z,101425.69
2022-10-13T11:53:20.717Z,101414.91
2022-10-13T11:56:33.895Z,101409.88
2022-10-13T11:59:37.943Z,101411.09
2022-10-13T12:02:49.578Z,101408.78
2022-10-13T12:05:54.709Z,101401.56
2022-10-13T12:08:57.304Z,101416.00
2022-10-13T12:12:03.602Z,101415.78
2022-10-13T12:15:29.042Z,101413.31
2022-10-13T12:18:34.584Z,101429.06
2022-10-13T12:21:50.235Z,101414.63
2022-10-13T12:25:01.421Z,101419.53
2022-10-13T12:28:04.284Z,101404.00
2022-10-13T12:31:06.909Z,101408.06
2022-10-13T12:34:20.127Z,101412.22
2022-10-13T12:37:30.670Z,101409.53
2022-10-13T12:40:34.706Z,101421.66
2022-10-13T12:43:37.486Z,101421.56
2022-10-13T12:46:42.328Z,101410.19
2022-10-13T12:49:45.042Z,101422.16
2022-10-13T12:52:49.289Z,101428.28
2022-10-13T12:55:58.649Z,101420.25
2022-10-13T12:59:01.669Z,101422.44
2022-10-13T13:02:20.781Z,101417.56
2022-10-13T13:05:31.428Z,101412.47
2022-10-13T13:08:35.502Z,101413.00
2022-10-13T13:11:39.722Z,101405.56
2022-10-13T13:14:43.494Z,101416.63
2022-10-13T13:17:57.653Z,101416.66
2022-10-13T13:21:02.116Z,101408.41
2022-10-13T13:24:16.204Z,101408.88
2022-10-13T13:27:36.545Z,101409.69
2022-10-13T13:30:39.130Z,101396.41
2022-10-13T13:33:42.166Z,101395.88
2022-10-13T13:36:45.005Z,101387.56
2022-10-13T13:39:48.910Z,101379.78
2022-10-13T13:42:51.740Z,101380.63
2022-10-13T13:45:54.347Z,101374.78
2022-10-13T13:48:57.050Z,101371.94
2022-10-13T13:51:59.780Z,101364.16
2022-10-13T13:55:03.792Z,101379.03
2022-10-13T13:58:06.432Z,101363.75
2022-10-13T14:01:09.118Z,101362.50
2022-10-13T14:04:11.865Z,101362.88
2022-10-13T14:07:14.985Z,101355.34
2022-10-13T14:10:18.962Z,101358.44
2022-10-13T14:13:21.721Z,101352.22
2022-10-13T14:16:24.562Z,101351.34
2022-10-13T14:19:27.456Z,101360.50
2022-10-13T14:22:30.029Z,101347.53
2022-10-13T14:25:34.526Z,101346.69
2022-10-13T14:28:37.144Z,101352.03
2022-10-13T14:31:39.759Z,101342.09
2022-10-13T14:34:42.584Z,101345.66
2022-10-13T14:37:45.169Z,101347.06
2022-10-13T14:40:49.109Z,101344.22
2022-10-13T14:43:54.329Z,101334.19
2022-10-13T14:46:57.039Z,101339.78
2022-10-13T14:50:01.276Z,101332.59
2022-10-13T14:53:03.868Z,101339.56
2022-10-13T14:56:18.264Z,101335.13
2022-10-13T14:59:20.983Z,101325.47
2022-10-13T15:02:23.561Z,101328.47
2022-10-13T15:05:26.256Z,101329.84
2022-10-13T15:08:28.873Z,101320.53
2022-10-13T15:11:33.242Z,101327.25
2022-10-13T15:14:36.028Z,101330.94
2022-10-13T15:17:38.648Z,101336.81
2022-10-13T15:20:46.496Z,101337.66
2022-10-13T15:23:49.639Z,101335.75
2022-10-13T15:26:53.727Z,101338.56
2022-10-13T15:29:56.295Z,101348.50
2022-10-13T15:32:59.051Z,101349.91
2022-10-13T15:36:02.065Z,101352.41
2022-10-13T15:39:04.798Z,101351.88
2022-10-13T15:42:08.886Z,101346.56
2022-10-13T15:45:12.158Z,101352.66
2022-10-13T15:48:14.953Z,101345.44
2022-10-13T15:51:20.374Z,101342.66
2022-10-13T15:54:23.472Z,101341.56
2022-10-13T15:57:27.958Z,101354.53
2022-10-13T16:00:30.587Z,101347.31
2022-10-13T16:03:33.186Z,101340.38
2022-10-13T16:06:37.376Z,101349.47
2022-10-13T16:09:39.936Z,101343.91
2022-10-13T16:12:49.370Z,101347.19
2022-10-13T16:15:58.537Z,101350.19
2022-10-13T16:19:01.442Z,101351.53
2022-10-13T16:22:04.162Z,101337.94
2022-10-13T16:25:07.690Z,101340.13
2022-10-13T16:28:11.654Z,101344.78
2022-10-13T16:31:16.913Z,101346.13
2022-10-13T16:34:19.885Z,101341.66
2022-10-13T16:37:22.799Z,101339.97
2022-10-13T16:40:25.854Z,101344.59
2022-10-13T16:43:30.714Z,101337.94
2022-10-13T16:46:34.007Z,101341.44
2022-10-13T16:49:37.203Z,101333.97
2022-10-13T16:52:39.967Z,101334.50
2022-10-13T16:55:42.953Z,101335.00
2022-10-13T16:58:47.276Z,101335.25
2022-10-13T17:01:49.889Z,101334.38
2022-10-13T17:04:52.701Z,101337.91
2022-10-13T17:07:55.262Z,101333.47
2022-10-13T17:10:58.552Z,101333.16
2022-10-13T17:14:02.780Z,101324.00
2022-10-13T17:17:05.736Z,101328.91
2022-10-13T17:20:08.908Z,101323.63
2022-10-13T17:23:11.624Z,101318.00
2022-10-13T17:26:15.066Z,101325.66
2022-10-13T17:29:19.129Z,101326.97
2022-10-13T17:32:21.888Z,101334.38
2022-10-13T17:35:24.639Z,101329.31
2022-10-13T17:38:27.280Z,101332.56
2022-10-13T17:41:30.032Z,101335.22
2022-10-13T17:44:34.115Z,101333.78
2022-10-13T17:47:36.828Z,101333.66
2022-10-13T17:50:39.388Z,101331.88
2022-10-13T17:53:43.421Z,101331.25
2022-10-13T17:56:46.706Z,101324.84
2022-10-13T17:59:50.726Z,101321.19
2022-10-13T18:02:53.475Z,101328.22
2022-10-13T18:05:56.086Z,101324.59
2022-10-13T18:08:58.808Z,101313.84
2022-10-13T18:12:01.414Z,101315.09
2022-10-13T18:15:06.442Z,101310.38
2022-10-13T18:18:11.034Z,101310.88
2022-10-13T18:21:15.766Z,101309.78
2022-10-13T18:24:18.565Z,101317.13
2022-10-13T18:27:21.923Z,101306.91
2022-10-13T18:30:26.410Z,101312.31
2022-10-13T18:33:29.629Z,101321.31
2022-10-13T18:36:35.493Z,101313.84
2022-10-13T18:39:38.775Z,101314.34
2022-10-13T18:42:45.964Z,101313.16
2022-10-13T18:45:51.393Z,101311.69
2022-10-13T18:48:54.277Z,101311.34
2022-10-13T18:51:57.469Z,101310.75
2022-10-13T18:55:00.284Z,101307.09
2022-10-13T18:58:03.609Z,101307.63
2022-10-13T19:01:09.617Z,101310.38
2022-10-13T19:04:16.824Z,101307.84
2022-10-13T19:07:20.265Z,101296.53
2022-10-13T19:10:25.339Z,101305.19
2022-10-13T19:13:28.771Z,101301.53
2022-10-13T19:16:38.721Z,101303.09
2022-10-13T19:19:41.608Z,101300.75
2022-10-13T19:22:44.628Z,101300.16
2022-10-13T19:25:50.441Z,101305.56
2022-10-13T19:28:59.147Z,101296.50
2022-10-13T19:32:09.925Z,101303.28
2022-10-13T19:35:13.696Z,101299.63
2022-10-13T19:38:19.922Z,101300.59
2022-10-13T19:41:23.432Z,101302.44
2022-10-13T19:44:26.243Z,101289.53
2022-10-13T19:47:30.478Z,101294.13
2022-10-13T19:50:34.743Z,101294.84
2022-10-13T19:53:38.816Z,101293.66
2022-10-13T19:56:42.101Z,101292.50
2022-10-13T19:59:47.699Z,101291.06
2022-10-13T20:02:52.986Z,101295.97
2022-10-13T20:05:56.206Z,101295.63
2022-10-13T20:08:59.657Z,101294.47
2022-10-13T20:12:02.830Z,101296.50
2022-10-13T20:15:08.860Z,101292.84
2022-10-13T20:18:13.742Z,101294.63
2022-10-13T20:21:17.948Z,101289.63
2022-10-13T20:24:21.878Z,101307.16
2022-10-13T20:27:24.732Z,101293.38
2022-10-13T20:30:27.750Z,101299.56
2022-10-13T20:33:33.395Z,101297.53
2022-10-13T20:36:38.768Z,101297.22
2022-10-13T20:39:42.694Z,101299.13
2022-10-13T20:42:50.891Z,101294.72
2022-10-13T20:46:00.536Z,101288.50
2022-10-13T20:49:13.449Z,101288.63
2022-10-13T20:52:20.583Z,101290.53
2022-10-13T20:55:23.355Z,101282.56
2022-10-13T20:58:27.108Z,101287.69
2022-10-13T21:01:30.410Z,101296.41
2022-10-13T21:04:35.189Z,101297.00
2022-10-13T21:07:37.908Z,101289.84
2022-10-13T21:10:40.827Z,101294.75
2022-10-13T21:13:49.658Z,101289.75
2022-10-13T21:16:52.477Z,101294.84
2022-10-13T21:19:56.461Z,101294.59
2022-10-13T21:23:00.431Z,101285.56
2022-10-13T21:26:03.985Z,101290.59
2022-10-13T21:29:07.054Z,101285.31
2022-10-13T21:32:09.777Z,101289.84
2022-10-13T21:35:15.653Z,101281.03
2022-10-13T21:38:18.636Z,101289.03
2022-10-13T21:41:22.495Z,101284.88
2022-10-13T21:44:27.476Z,101287.59
2022-10-13T21:47:31.134Z,101286.78
2022-10-13T21:50:35.484Z,101293.69
2022-10-13T21:53:38.521Z,101289.03
2022-10-13T21:56:42.583Z,101287.34
2022-10-13T21:59:51.514Z,101293.91
2022-10-13T22:02:54.311Z,101303.81
2022-10-13T22:05:58.612Z,101295.34
2022-10-13T22:09:06.455Z,101293.09
2022-10-13T22:12:09.321Z,101297.97
2022-10-13T22:15:12.431Z,101292.13
2022-10-13T22:18:15.727Z,101300.34
2022-10-13T22:21:24.779Z,101298.91
2022-10-13T22:24:28.033Z,101300.00
2022-10-13T22:27:31.030Z,101298.81
2022-10-13T22:30:37.531Z,101292.75
2022-10-13T22:33:44.953Z,101291.91
2022-10-13T22:36:52.659Z,101282.63
2022-10-13T22:39:55.210Z,101290.00
2022-10-13T22:42:58.139Z,101287.72
2022-10-13T22:46:01.880Z,101277.81
2022-10-13T22:49:05.435Z,101276.28
2022-10-13T22:52:09.365Z,101278.19
2022-10-13T22:55:12.606Z,101280.31
2022-10-13T22:58:18.319Z,101271.03
2022-10-13T23:01:22.167Z,101269.16
2022-10-13T23:04:24.878Z,101261.97
2022-10-13T23:07:29.872Z,101268.91
2022-10-13T23:10:32.625Z,101267.34
2022-10-13T23:13:35.527Z,101276.75
2022-10-13T23:16:38.289Z,101271.28
2022-10-13T23:19:41.086Z,101269.25
2022-10-13T23:22:46.877Z,101273.06
2022-10-13T23:25:49.746Z,101274.97
2022-10-13T23:28:52.819Z,101268.66
2022-10-13T23:31:55.675Z,101268.91
2022-10-13T23:34:59.865Z,101259.72
2022-10-13T23:38:04.103Z,101256.84
2022-10-13T23:41:11.566Z,101262.56
2022-10-13T23:44:14.506Z,101263.88
2022-10-13T23:47:17.137Z,101262.44
2022-10-13T23:50:19.886Z,101256.34
2022-10-13T23:53:23.886Z,101259.56
2022-10-13T23:56:26.992Z,101261.13
2022-10-13T23:59:29.860Z,101257.56
